sensor_id;sensor_type;location;lat;lon;timestamp;temperature;humidity
71237;DHT22;58984;51.960;5.582;2022-10-16T00:01:34;19.20;56.80
71237;DHT22;58984;51.960;5.582;2022-10-16T00:04:01;19.20;56.70
71237;DHT22;58984;51.960;5.582;2022-10-16T00:06:28;19.20;56.70
71237;DHT22;58984;51.960;5.582;2022-10-16T00:08:54;19.20;57.30
71237;DHT22;58984;51.960;5.582;2022-10-16T00:11:28;19.20;56.70
71237;DHT22;58984;51.960;5.582;2022-10-16T00:13:57;19.10;56.60
71237;DHT22;58984;51.960;5.582;2022-10-16T00:16:24;19.10;56.60
71237;DHT22;58984;51.960;5.582;2022-10-16T00:18:49;19.10;56.60
71237;DHT22;58984;51.960;5.582;2022-10-16T00:21:19;19.10;56.60
71237;DHT22;58984;51.960;5.582;2022-10-16T00:23:45;19.10;56.70
71237;DHT22;58984;51.960;5.582;2022-10-16T00:26:15;19.10;56.70
71237;DHT22;58984;51.960;5.582;2022-10-16T00:28:41;19.10;56.70
71237;DHT22;58984;51.960;5.582;2022-10-16T00:31:10;19.10;56.60
71237;DHT22;58984;51.960;5.582;2022-10-16T00:33:38;19.00;56.50
71237;DHT22;58984;51.960;5.582;2022-10-16T00:36:06;19.10;56.70
71237;DHT22;58984;51.960;5.582;2022-10-16T00:38:32;19.00;56.60
71237;DHT22;58984;51.960;5.582;2022-10-16T00:40:58;19.00;56.60
71237;DHT22;58984;51.960;5.582;2022-10-16T00:44:41;19.10;56.70
71237;DHT22;58984;51.960;5.582;2022-10-16T00:46:41;19.00;56.70
71237;DHT22;58984;51.960;5.582;2022-10-16T00:49:16;19.00;56.50
71237;DHT22;58984;51.960;5.582;2022-10-16T00:51:42;19.00;56.60
71237;DHT22;58984;51.960;5.582;2022-10-16T00:54:16;19.00;57.30
71237;DHT22;58984;51.960;5.582;2022-10-16T00:56:43;19.00;56.70
71237;DHT22;58984;51.960;5.582;2022-10-16T00:59:19;19.00;56.70
71237;DHT22;58984;51.960;5.582;2022-10-16T01:01:45;18.90;56.70
71237;DHT22;58984;51.960;5.582;2022-10-16T01:04:11;19.00;56.70
71237;DHT22;58984;51.960;5.582;2022-10-16T01:06:43;19.00;56.80
71237;DHT22;58984;51.960;5.582;2022-10-16T01:09:36;19.00;56.90
71237;DHT22;58984;51.960;5.582;2022-10-16T01:12:29;19.00;56.80
71237;DHT22;58984;51.960;5.582;2022-10-16T01:15:14;18.90;57.00
71237;DHT22;58984;51.960;5.582;2022-10-16T01:17:43;18.90;56.90
71237;DHT22;58984;51.960;5.582;2022-10-16T01:20:33;18.90;57.00
71237;DHT22;58984;51.960;5.582;2022-10-16T01:28:50;19.00;56.70
71237;DHT22;58984;51.960;5.582;2022-10-16T01:31:19;19.00;57.00
71237;DHT22;58984;51.960;5.582;2022-10-16T01:33:51;19.00;57.10
71237;DHT22;58984;51.960;5.582;2022-10-16T01:36:34;19.00;57.10
71237;DHT22;58984;51.960;5.582;2022-10-16T01:39:01;18.90;57.10
71237;DHT22;58984;51.960;5.582;2022-10-16T01:41:34;19.00;57.10
71237;DHT22;58984;51.960;5.582;2022-10-16T01:44:08;18.90;57.00
71237;DHT22;58984;51.960;5.582;2022-10-16T01:46:37;18.90;57.10
71237;DHT22;58984;51.960;5.582;2022-10-16T01:49:05;19.00;57.10
71237;DHT22;58984;51.960;5.582;2022-10-16T01:51:32;18.90;57.10
71237;DHT22;58984;51.960;5.582;2022-10-16T01:54:00;19.00;57.10
71237;DHT22;58984;51.960;5.582;2022-10-16T01:56:27;18.90;57.10
71237;DHT22;58984;51.960;5.582;2022-10-16T01:59:06;19.00;57.10
71237;DHT22;58984;51.960;5.582;2022-10-16T02:01:35;18.90;57.10
71237;DHT22;58984;51.960;5.582;2022-10-16T02:04:07;19.00;57.10
71237;DHT22;58984;51.960;5.582;2022-10-16T02:06:34;19.00;57.10
71237;DHT22;58984;51.960;5.582;2022-10-16T02:09:01;19.00;57.10
71237;DHT22;58984;51.960;5.582;2022-10-16T02:11:26;19.00;57.10
71237;DHT22;58984;51.960;5.582;2022-10-16T02:13:58;19.00;57.10
71237;DHT22;58984;51.960;5.582;2022-10-16T02:16:39;19.00;57.10
71237;DHT22;58984;51.960;5.582;2022-10-16T02:19:05;18.90;57.20
71237;DHT22;58984;51.960;5.582;2022-10-16T02:21:40;19.00;57.10
71237;DHT22;58984;51.960;5.582;2022-10-16T02:24:49;18.90;57.10
71237;DHT22;58984;51.960;5.582;2022-10-16T02:29:49;19.00;57.80
71237;DHT22;58984;51.960;5.582;2022-10-16T02:32:20;19.00;57.10
71237;DHT22;58984;51.960;5.582;2022-10-16T02:34:48;19.00;57.10
71237;DHT22;58984;51.960;5.582;2022-10-16T02:37:14;19.00;57.10
71237;DHT22;58984;51.960;5.582;2022-10-16T02:39:41;19.00;57.10
71237;DHT22;58984;51.960;5.582;2022-10-16T02:42:13;19.00;57.10
71237;DHT22;58984;51.960;5.582;2022-10-16T02:44:39;18.90;57.30
71237;DHT22;58984;51.960;5.582;2022-10-16T02:47:05;18.90;57.10
71237;DHT22;58984;51.960;5.582;2022-10-16T02:49:31;19.00;57.10
71237;DHT22;58984;51.960;5.582;2022-10-16T02:51:56;19.00;57.10
71237;DHT22;58984;51.960;5.582;2022-10-16T02:54:22;19.00;57.20
71237;DHT22;58984;51.960;5.582;2022-10-16T02:56:47;19.00;57.30
71237;DHT22;58984;51.960;5.582;2022-10-16T02:59:13;19.00;57.30
71237;DHT22;58984;51.960;5.582;2022-10-16T03:01:38;19.00;57.20
71237;DHT22;58984;51.960;5.582;2022-10-16T03:04:04;19.00;57.30
71237;DHT22;58984;51.960;5.582;2022-10-16T03:06:30;19.00;57.40
71237;DHT22;58984;51.960;5.582;2022-10-16T03:08:55;19.00;57.40
71237;DHT22;58984;51.960;5.582;2022-10-16T03:11:21;18.90;57.20
71237;DHT22;58984;51.960;5.582;2022-10-16T03:13:46;19.00;57.40
71237;DHT22;58984;51.960;5.582;2022-10-16T03:16:12;18.90;57.20
71237;DHT22;58984;51.960;5.582;2022-10-16T03:18:37;19.00;57.30
71237;DHT22;58984;51.960;5.582;2022-10-16T03:21:03;19.00;57.30
71237;DHT22;58984;51.960;5.582;2022-10-16T03:23:28;18.90;57.10
71237;DHT22;58984;51.960;5.582;2022-10-16T03:25:54;18.90;57.10
71237;DHT22;58984;51.960;5.582;2022-10-16T03:28:20;18.90;57.10
71237;DHT22;58984;51.960;5.582;2022-10-16T03:30:45;19.00;57.40
71237;DHT22;58984;51.960;5.582;2022-10-16T03:33:11;18.90;57.10
71237;DHT22;58984;51.960;5.582;2022-10-16T03:35:36;18.90;57.10
71237;DHT22;58984;51.960;5.582;2022-10-16T03:38:02;18.90;57.10
71237;DHT22;58984;51.960;5.582;2022-10-16T03:40:28;18.90;57.20
71237;DHT22;58984;51.960;5.582;2022-10-16T03:42:53;19.00;57.10
71237;DHT22;58984;51.960;5.582;2022-10-16T03:45:23;19.00;57.10
71237;DHT22;58984;51.960;5.582;2022-10-16T03:47:48;18.90;57.10
71237;DHT22;58984;51.960;5.582;2022-10-16T03:50:14;18.90;57.20
71237;DHT22;58984;51.960;5.582;2022-10-16T03:52:39;18.90;57.20
71237;DHT22;58984;51.960;5.582;2022-10-16T03:55:05;18.90;57.20
71237;DHT22;58984;51.960;5.582;2022-10-16T03:57:31;18.90;57.10
71237;DHT22;58984;51.960;5.582;2022-10-16T03:59:57;18.90;57.10
71237;DHT22;58984;51.960;5.582;2022-10-16T04:02:22;18.90;57.10
71237;DHT22;58984;51.960;5.582;2022-10-16T04:04:48;18.90;57.10
71237;DHT22;58984;51.960;5.582;2022-10-16T04:07:14;18.90;57.10
71237;DHT22;58984;51.960;5.582;2022-10-16T04:09:39;18.90;57.10
71237;DHT22;58984;51.960;5.582;2022-10-16T04:12:05;18.90;57.10
71237;DHT22;58984;51.960;5.582;2022-10-16T04:14:30;18.90;57.10
71237;DHT22;58984;51.960;5.582;2022-10-16T04:16:56;18.90;57.20
71237;DHT22;58984;51.960;5.582;2022-10-16T04:19:21;18.90;57.20
71237;DHT22;58984;51.960;5.582;2022-10-16T04:21:47;18.90;57.30
71237;DHT22;58984;51.960;5.582;2022-10-16T04:24:12;18.90;57.20
71237;DHT22;58984;51.960;5.582;2022-10-16T04:26:38;18.90;57.30
71237;DHT22;58984;51.960;5.582;2022-10-16T04:29:03;18.90;57.30
71237;DHT22;58984;51.960;5.582;2022-10-16T04:31:29;18.90;57.20
71237;DHT22;58984;51.960;5.582;2022-10-16T04:33:55;18.90;57.30
71237;DHT22;58984;51.960;5.582;2022-10-16T04:36:20;18.90;57.20
71237;DHT22;58984;51.960;5.582;2022-10-16T04:38:46;18.90;57.40
71237;DHT22;58984;51.960;5.582;2022-10-16T04:41:12;18.90;57.40
71237;DHT22;58984;51.960;5.582;2022-10-16T04:43:37;18.90;57.60
71237;DHT22;58984;51.960;5.582;2022-10-16T04:46:03;18.90;57.30
71237;DHT22;58984;51.960;5.582;2022-10-16T04:48:30;18.90;57.30
71237;DHT22;58984;51.960;5.582;2022-10-16T04:50:55;18.90;57.20
71237;DHT22;58984;51.960;5.582;2022-10-16T04:53:21;18.80;57.20
71237;DHT22;58984;51.960;5.582;2022-10-16T04:55:47;18.80;57.30
71237;DHT22;58984;51.960;5.582;2022-10-16T04:58:12;18.80;57.30
71237;DHT22;58984;51.960;5.582;2022-10-16T05:00:38;18.80;57.30
71237;DHT22;58984;51.960;5.582;2022-10-16T05:03:04;18.80;57.30
71237;DHT22;58984;51.960;5.582;2022-10-16T05:05:33;18.80;57.30
71237;DHT22;58984;51.960;5.582;2022-10-16T05:07:58;18.80;57.40
71237;DHT22;58984;51.960;5.582;2022-10-16T05:10:24;18.80;57.50
71237;DHT22;58984;51.960;5.582;2022-10-16T05:12:49;18.80;57.40
71237;DHT22;58984;51.960;5.582;2022-10-16T05:15:17;18.80;57.30
71237;DHT22;58984;51.960;5.582;2022-10-16T05:17:42;18.80;57.30
71237;DHT22;58984;51.960;5.582;2022-10-16T05:20:08;18.80;57.30
71237;DHT22;58984;51.960;5.582;2022-10-16T05:22:34;18.80;57.30
71237;DHT22;58984;51.960;5.582;2022-10-16T05:24:59;18.80;57.30
71237;DHT22;58984;51.960;5.582;2022-10-16T05:27:25;18.80;57.10
71237;DHT22;58984;51.960;5.582;2022-10-16T05:29:50;18.80;57.30
71237;DHT22;58984;51.960;5.582;2022-10-16T05:32:16;18.80;57.20
71237;DHT22;58984;51.960;5.582;2022-10-16T05:34:43;18.80;57.20
71237;DHT22;58984;51.960;5.582;2022-10-16T05:37:08;18.80;57.00
71237;DHT22;58984;51.960;5.582;2022-10-16T05:39:34;18.80;57.10
71237;DHT22;58984;51.960;5.582;2022-10-16T05:42:00;18.70;57.00
71237;DHT22;58984;51.960;5.582;2022-10-16T05:44:25;18.80;57.20
71237;DHT22;58984;51.960;5.582;2022-10-16T05:46:51;18.70;57.10
71237;DHT22;58984;51.960;5.582;2022-10-16T05:49:17;18.70;57.10
71237;DHT22;58984;51.960;5.582;2022-10-16T05:51:42;18.70;57.10
71237;DHT22;58984;51.960;5.582;2022-10-16T05:54:08;18.70;57.20
71237;DHT22;58984;51.960;5.582;2022-10-16T05:56:34;18.70;57.40
71237;DHT22;58984;51.960;5.582;2022-10-16T05:58:59;18.70;57.30
71237;DHT22;58984;51.960;5.582;2022-10-16T06:01:25;18.70;58.00
71237;DHT22;58984;51.960;5.582;2022-10-16T06:03:51;18.70;57.40
71237;DHT22;58984;51.960;5.582;2022-10-16T06:06:26;18.70;57.50
71237;DHT22;58984;51.960;5.582;2022-10-16T06:08:52;18.70;57.40
71237;DHT22;58984;51.960;5.582;2022-10-16T06:11:21;18.70;57.40
71237;DHT22;58984;51.960;5.582;2022-10-16T06:13:51;18.70;57.40
71237;DHT22;58984;51.960;5.582;2022-10-16T06:16:17;18.60;57.30
71237;DHT22;58984;51.960;5.582;2022-10-16T06:18:42;18.70;57.40
71237;DHT22;58984;51.960;5.582;2022-10-16T06:21:10;18.70;57.40
71237;DHT22;58984;51.960;5.582;2022-10-16T06:23:36;18.70;57.60
71237;DHT22;58984;51.960;5.582;2022-10-16T06:26:10;18.70;57.50
71237;DHT22;58984;51.960;5.582;2022-10-16T06:28:36;18.60;57.60
71237;DHT22;58984;51.960;5.582;2022-10-16T06:31:03;18.70;57.60
71237;DHT22;58984;51.960;5.582;2022-10-16T06:33:29;18.70;57.70
71237;DHT22;58984;51.960;5.582;2022-10-16T06:36:06;18.70;57.70
71237;DHT22;58984;51.960;5.582;2022-10-16T06:38:34;18.60;57.80
71237;DHT22;58984;51.960;5.582;2022-10-16T06:40:59;18.70;57.70
71237;DHT22;58984;51.960;5.582;2022-10-16T06:43:27;18.70;57.80
71237;DHT22;58984;51.960;5.582;2022-10-16T06:45:54;18.70;57.80
71237;DHT22;58984;51.960;5.582;2022-10-16T06:48:21;18.70;57.90
71237;DHT22;58984;51.960;5.582;2022-10-16T06:51:11;18.70;57.80
71237;DHT22;58984;51.960;5.582;2022-10-16T06:53:39;18.60;57.80
71237;DHT22;58984;51.960;5.582;2022-10-16T06:58:33;18.70;58.00
71237;DHT22;58984;51.960;5.582;2022-10-16T07:00:59;18.70;57.90
71237;DHT22;58984;51.960;5.582;2022-10-16T07:03:24;18.70;57.90
71237;DHT22;58984;51.960;5.582;2022-10-16T07:05:50;18.70;58.00
71237;DHT22;58984;51.960;5.582;2022-10-16T07:08:16;18.70;57.90
71237;DHT22;58984;51.960;5.582;2022-10-16T07:10:41;18.70;58.00
71237;DHT22;58984;51.960;5.582;2022-10-16T07:13:07;18.70;57.90
71237;DHT22;58984;51.960;5.582;2022-10-16T07:15:33;18.70;58.00
71237;DHT22;58984;51.960;5.582;2022-10-16T07:17:59;18.70;58.00
71237;DHT22;58984;51.960;5.582;2022-10-16T07:20:27;18.70;58.00
71237;DHT22;58984;51.960;5.582;2022-10-16T07:22:53;18.70;58.00
71237;DHT22;58984;51.960;5.582;2022-10-16T07:25:18;18.70;58.00
71237;DHT22;58984;51.960;5.582;2022-10-16T07:27:44;18.70;58.00
71237;DHT22;58984;51.960;5.582;2022-10-16T07:30:10;18.70;58.00
71237;DHT22;58984;51.960;5.582;2022-10-16T07:32:35;18.80;58.30
71237;DHT22;58984;51.960;5.582;2022-10-16T07:35:01;18.70;58.20
71237;DHT22;58984;51.960;5.582;2022-10-16T07:37:26;18.70;58.20
71237;DHT22;58984;51.960;5.582;2022-10-16T07:39:52;18.70;58.20
71237;DHT22;58984;51.960;5.582;2022-10-16T07:42:18;18.70;58.30
71237;DHT22;58984;51.960;5.582;2022-10-16T07:44:45;18.70;58.30
71237;DHT22;58984;51.960;5.582;2022-10-16T07:47:11;18.70;58.20
71237;DHT22;58984;51.960;5.582;2022-10-16T07:49:36;18.80;58.30
71237;DHT22;58984;51.960;5.582;2022-10-16T07:52:02;18.70;58.20
71237;DHT22;58984;51.960;5.582;2022-10-16T07:54:28;18.80;58.30
71237;DHT22;58984;51.960;5.582;2022-10-16T07:56:53;18.80;58.30
71237;DHT22;58984;51.960;5.582;2022-10-16T07:59:19;18.80;58.40
71237;DHT22;58984;51.960;5.582;2022-10-16T08:01:45;18.80;58.40
71237;DHT22;58984;51.960;5.582;2022-10-16T08:04:10;18.80;58.60
71237;DHT22;58984;51.960;5.582;2022-10-16T08:06:38;18.80;58.50
71237;DHT22;58984;51.960;5.582;2022-10-16T08:09:05;18.80;58.70
71237;DHT22;58984;51.960;5.582;2022-10-16T08:11:31;18.80;58.60
71237;DHT22;58984;51.960;5.582;2022-10-16T08:13:57;18.80;58.60
71237;DHT22;58984;51.960;5.582;2022-10-16T08:16:23;18.90;58.70
71237;DHT22;58984;51.960;5.582;2022-10-16T08:18:48;18.90;58.70
71237;DHT22;58984;51.960;5.582;2022-10-16T08:21:18;18.90;58.70
71237;DHT22;58984;51.960;5.582;2022-10-16T08:23:44;18.80;58.60
71237;DHT22;58984;51.960;5.582;2022-10-16T08:26:10;18.90;58.70
71237;DHT22;58984;51.960;5.582;2022-10-16T08:28:36;18.90;58.60
71237;DHT22;58984;51.960;5.582;2022-10-16T08:31:13;18.90;58.70
71237;DHT22;58984;51.960;5.582;2022-10-16T08:33:42;18.80;58.70
71237;DHT22;58984;51.960;5.582;2022-10-16T08:36:10;18.90;58.50
71237;DHT22;58984;51.960;5.582;2022-10-16T08:38:35;18.90;58.70
71237;DHT22;58984;51.960;5.582;2022-10-16T08:48:54;18.90;58.90
71237;DHT22;58984;51.960;5.582;2022-10-16T08:51:25;18.90;59.00
71237;DHT22;58984;51.960;5.582;2022-10-16T08:53:59;18.90;58.90
71237;DHT22;58984;51.960;5.582;2022-10-16T08:56:27;19.00;59.00
71237;DHT22;58984;51.960;5.582;2022-10-16T08:58:53;19.00;58.90
71237;DHT22;58984;51.960;5.582;2022-10-16T09:01:21;19.10;58.90
71237;DHT22;58984;51.960;5.582;2022-10-16T09:09:56;19.10;59.10
71237;DHT22;58984;51.960;5.582;2022-10-16T09:12:36;19.10;59.20
71237;DHT22;58984;51.960;5.582;2022-10-16T09:15:24;19.20;59.20
71237;DHT22;58984;51.960;5.582;2022-10-16T09:18:18;19.30;59.50
71237;DHT22;58984;51.960;5.582;2022-10-16T09:23:49;19.40;59.60
71237;DHT22;58984;51.960;5.582;2022-10-16T09:26:16;19.50;59.50
71237;DHT22;58984;51.960;5.582;2022-10-16T09:28:43;19.50;59.50
71237;DHT22;58984;51.960;5.582;2022-10-16T09:31:20;19.60;59.80
71237;DHT22;58984;51.960;5.582;2022-10-16T09:33:58;19.60;59.90
71237;DHT22;58984;51.960;5.582;2022-10-16T09:36:25;19.70;60.00
71237;DHT22;58984;51.960;5.582;2022-10-16T09:39:02;19.80;60.00
71237;DHT22;58984;51.960;5.582;2022-10-16T09:41:28;19.80;60.10
71237;DHT22;58984;51.960;5.582;2022-10-16T09:43:59;20.00;60.10
71237;DHT22;58984;51.960;5.582;2022-10-16T09:46:35;20.00;60.20
71237;DHT22;58984;51.960;5.582;2022-10-16T09:49:24;20.00;60.70
71237;DHT22;58984;51.960;5.582;2022-10-16T09:51:51;20.10;60.40
71237;DHT22;58984;51.960;5.582;2022-10-16T09:54:27;20.20;60.10
71237;DHT22;58984;51.960;5.582;2022-10-16T09:57:04;20.30;60.10
71237;DHT22;58984;51.960;5.582;2022-10-16T09:59:31;20.30;60.50
71237;DHT22;58984;51.960;5.582;2022-10-16T10:02:01;20.40;60.40
71237;DHT22;58984;51.960;5.582;2022-10-16T10:04:38;20.40;60.50
71237;DHT22;58984;51.960;5.582;2022-10-16T10:07:06;20.50;60.50
71237;DHT22;58984;51.960;5.582;2022-10-16T10:09:44;20.60;60.50
71237;DHT22;58984;51.960;5.582;2022-10-16T10:12:27;20.60;60.40
71237;DHT22;58984;51.960;5.582;2022-10-16T10:14:56;20.70;60.70
71237;DHT22;58984;51.960;5.582;2022-10-16T10:17:24;20.80;60.60
71237;DHT22;58984;51.960;5.582;2022-10-16T10:30:33;21.10;61.00
71237;DHT22;58984;51.960;5.582;2022-10-16T10:35:39;21.30;60.90
71237;DHT22;58984;51.960;5.582;2022-10-16T10:38:26;21.30;60.90
71237;DHT22;58984;51.960;5.582;2022-10-16T10:44:04;21.40;60.90
71237;DHT22;58984;51.960;5.582;2022-10-16T10:46:35;21.50;60.90
71237;DHT22;58984;51.960;5.582;2022-10-16T10:52:27;21.70;60.70
71237;DHT22;58984;51.960;5.582;2022-10-16T10:55:15;21.70;60.70
71237;DHT22;58984;51.960;5.582;2022-10-16T11:06:20;21.90;60.00
71237;DHT22;58984;51.960;5.582;2022-10-16T11:09:19;22.10;60.00
71237;DHT22;58984;51.960;5.582;2022-10-16T11:12:17;22.10;60.20
71237;DHT22;58984;51.960;5.582;2022-10-16T11:15:14;22.20;59.80
71237;DHT22;58984;51.960;5.582;2022-10-16T11:17:47;22.20;59.80
71237;DHT22;58984;51.960;5.582;2022-10-16T11:20:18;22.30;59.80
71237;DHT22;58984;51.960;5.582;2022-10-16T11:22:50;22.30;59.80
71237;DHT22;58984;51.960;5.582;2022-10-16T11:30:43;22.50;60.00
71237;DHT22;58984;51.960;5.582;2022-10-16T11:33:32;22.60;59.70
71237;DHT22;58984;51.960;5.582;2022-10-16T11:36:08;22.60;59.90
71237;DHT22;58984;51.960;5.582;2022-10-16T11:38:53;22.70;59.60
71237;DHT22;58984;51.960;5.582;2022-10-16T11:41:37;22.70;59.70
71237;DHT22;58984;51.960;5.582;2022-10-16T11:47:12;22.80;59.40
71237;DHT22;58984;51.960;5.582;2022-10-16T11:49:43;22.80;59.60
71237;DHT22;58984;51.960;5.582;2022-10-16T11:52:22;22.90;59.50
71237;DHT22;58984;51.960;5.582;2022-10-16T11:57:39;23.00;59.40
71237;DHT22;58984;51.960;5.582;2022-10-16T12:00:14;23.00;59.50
71237;DHT22;58984;51.960;5.582;2022-10-16T12:08:22;23.20;59.00
71237;DHT22;58984;51.960;5.582;2022-10-16T12:10:48;23.40;59.20
71237;DHT22;58984;51.960;5.582;2022-10-16T12:13:35;23.40;59.20
71237;DHT22;58984;51.960;5.582;2022-10-16T12:18:40;23.50;59.30
71237;DHT22;58984;51.960;5.582;2022-10-16T12:21:06;23.60;59.20
71237;DHT22;58984;51.960;5.582;2022-10-16T12:23:37;23.60;58.80
71237;DHT22;58984;51.960;5.582;2022-10-16T12:26:04;23.60;58.90
71237;DHT22;58984;51.960;5.582;2022-10-16T12:28:31;23.70;59.10
71237;DHT22;58984;51.960;5.582;2022-10-16T12:31:06;23.80;59.20
71237;DHT22;58984;51.960;5.582;2022-10-16T12:33:42;23.80;59.00
71237;DHT22;58984;51.960;5.582;2022-10-16T12:36:25;23.90;59.00
71237;DHT22;58984;51.960;5.582;2022-10-16T12:38:52;24.10;59.00
71237;DHT22;58984;51.960;5.582;2022-10-16T12:41:33;24.10;58.50
71237;DHT22;58984;51.960;5.582;2022-10-16T12:44:00;24.00;58.70
71237;DHT22;58984;51.960;5.582;2022-10-16T12:51:37;24.10;58.70
71237;DHT22;58984;51.960;5.582;2022-10-16T12:54:11;24.20;58.40
71237;DHT22;58984;51.960;5.582;2022-10-16T12:57:03;24.20;58.00
71237;DHT22;58984;51.960;5.582;2022-10-16T13:02:50;24.30;58.50
71237;DHT22;58984;51.960;5.582;2022-10-16T13:19:02;24.50;58.10
71237;DHT22;58984;51.960;5.582;2022-10-16T13:21:51;24.60;58.00
71237;DHT22;58984;51.960;5.582;2022-10-16T13:27:03;24.60;57.70
71237;DHT22;58984;51.960;5.582;2022-10-16T13:29:32;24.60;57.60
71237;DHT22;58984;51.960;5.582;2022-10-16T13:32:00;24.70;57.50
71237;DHT22;58984;51.960;5.582;2022-10-16T13:34:27;24.70;57.40
71237;DHT22;58984;51.960;5.582;2022-10-16T13:36:53;24.80;57.60
71237;DHT22;58984;51.960;5.582;2022-10-16T13:39:30;24.70;57.10
71237;DHT22;58984;51.960;5.582;2022-10-16T13:42:09;24.70;57.10
71237;DHT22;58984;51.960;5.582;2022-10-16T13:44:48;24.70;57.10
71237;DHT22;58984;51.960;5.582;2022-10-16T13:47:20;24.90;57.30
71237;DHT22;58984;51.960;5.582;2022-10-16T13:49:46;24.90;56.50
71237;DHT22;58984;51.960;5.582;2022-10-16T13:52:20;24.80;56.70
71237;DHT22;58984;51.960;5.582;2022-10-16T13:54:47;24.70;56.20
71237;DHT22;58984;51.960;5.582;2022-10-16T13:57:16;24.80;56.20
71237;DHT22;58984;51.960;5.582;2022-10-16T13:59:42;24.70;56.20
71237;DHT22;58984;51.960;5.582;2022-10-16T14:04:45;24.60;56.20
71237;DHT22;58984;51.960;5.582;2022-10-16T14:07:20;24.80;56.40
71237;DHT22;58984;51.960;5.582;2022-10-16T14:09:49;24.60;56.20
71237;DHT22;58984;51.960;5.582;2022-10-16T14:12:15;24.70;56.20
71237;DHT22;58984;51.960;5.582;2022-10-16T14:14:43;24.70;56.20
71237;DHT22;58984;51.960;5.582;2022-10-16T14:17:20;24.70;56.00
71237;DHT22;58984;51.960;5.582;2022-10-16T14:19:48;24.60;56.00
71237;DHT22;58984;51.960;5.582;2022-10-16T14:22:42;24.60;55.90
71237;DHT22;58984;51.960;5.582;2022-10-16T14:28:18;24.50;55.90
71237;DHT22;58984;51.960;5.582;2022-10-16T14:30:57;24.50;55.90
71237;DHT22;58984;51.960;5.582;2022-10-16T14:38:29;24.50;55.50
71237;DHT22;58984;51.960;5.582;2022-10-16T14:40:57;24.50;55.50
71237;DHT22;58984;51.960;5.582;2022-10-16T14:43:40;24.50;55.40
71237;DHT22;58984;51.960;5.582;2022-10-16T14:46:14;24.30;55.20
71237;DHT22;58984;51.960;5.582;2022-10-16T14:48:47;24.40;55.40
71237;DHT22;58984;51.960;5.582;2022-10-16T14:51:15;24.40;55.30
71237;DHT22;58984;51.960;5.582;2022-10-16T14:53:40;24.40;55.30
71237;DHT22;58984;51.960;5.582;2022-10-16T14:56:08;24.30;55.30
71237;DHT22;58984;51.960;5.582;2022-10-16T14:58:35;24.30;55.20
71237;DHT22;58984;51.960;5.582;2022-10-16T15:01:00;24.20;55.20
71237;DHT22;58984;51.960;5.582;2022-10-16T15:03:26;24.20;55.20
71237;DHT22;58984;51.960;5.582;2022-10-16T15:05:52;24.20;55.10
71237;DHT22;58984;51.960;5.582;2022-10-16T15:08:17;24.20;55.30
71237;DHT22;58984;51.960;5.582;2022-10-16T15:10:43;24.10;55.20
71237;DHT22;58984;51.960;5.582;2022-10-16T15:13:13;24.10;55.30
71237;DHT22;58984;51.960;5.582;2022-10-16T15:15:44;24.10;55.40
71237;DHT22;58984;51.960;5.582;2022-10-16T15:18:10;24.00;55.40
71237;DHT22;58984;51.960;5.582;2022-10-16T15:20:37;24.00;55.50
71237;DHT22;58984;51.960;5.582;2022-10-16T15:23:06;24.00;55.60
71237;DHT22;58984;51.960;5.582;2022-10-16T15:25:42;24.00;55.60
71237;DHT22;58984;51.960;5.582;2022-10-16T15:28:09;24.00;55.60
71237;DHT22;58984;51.960;5.582;2022-10-16T15:30:35;24.00;55.60
71237;DHT22;58984;51.960;5.582;2022-10-16T15:33:02;23.90;55.50
71237;DHT22;58984;51.960;5.582;2022-10-16T15:35:28;23.90;55.70
71237;DHT22;58984;51.960;5.582;2022-10-16T15:37:53;23.90;55.70
71237;DHT22;58984;51.960;5.582;2022-10-16T15:40:20;23.80;55.60
71237;DHT22;58984;51.960;5.582;2022-10-16T15:42:46;23.80;55.60
71237;DHT22;58984;51.960;5.582;2022-10-16T15:45:13;23.80;55.60
71237;DHT22;58984;51.960;5.582;2022-10-16T15:47:40;23.80;55.60
71237;DHT22;58984;51.960;5.582;2022-10-16T15:50:06;23.70;55.50
71237;DHT22;58984;51.960;5.582;2022-10-16T15:52:32;23.70;55.50
71237;DHT22;58984;51.960;5.582;2022-10-16T15:54:58;23.70;55.60
71237;DHT22;58984;51.960;5.582;2022-10-16T15:57:24;23.70;55.60
71237;DHT22;58984;51.960;5.582;2022-10-16T15:59:49;23.60;55.50
71237;DHT22;58984;51.960;5.582;2022-10-16T16:02:15;23.60;55.50
71237;DHT22;58984;51.960;5.582;2022-10-16T16:04:41;23.60;55.50
71237;DHT22;58984;51.960;5.582;2022-10-16T16:07:06;23.60;55.50
71237;DHT22;58984;51.960;5.582;2022-10-16T16:09:34;23.60;55.70
71237;DHT22;58984;51.960;5.582;2022-10-16T16:12:00;23.60;55.60
71237;DHT22;58984;51.960;5.582;2022-10-16T16:14:26;23.50;55.60
71237;DHT22;58984;51.960;5.582;2022-10-16T16:16:57;23.50;55.60
71237;DHT22;58984;51.960;5.582;2022-10-16T16:19:23;23.50;55.50
71237;DHT22;58984;51.960;5.582;2022-10-16T16:21:49;23.40;55.50
71237;DHT22;58984;51.960;5.582;2022-10-16T16:24:15;23.40;55.50
71237;DHT22;58984;51.960;5.582;2022-10-16T16:26:41;23.50;55.60
71237;DHT22;58984;51.960;5.582;2022-10-16T16:29:11;23.40;55.50
71237;DHT22;58984;51.960;5.582;2022-10-16T16:31:39;23.30;55.40
71237;DHT22;58984;51.960;5.582;2022-10-16T16:34:04;23.40;55.50
71237;DHT22;58984;51.960;5.582;2022-10-16T16:36:30;23.30;55.30
71237;DHT22;58984;51.960;5.582;2022-10-16T16:38:57;23.30;55.40
71237;DHT22;58984;51.960;5.582;2022-10-16T16:41:26;23.30;55.40
71237;DHT22;58984;51.960;5.582;2022-10-16T16:43:53;23.20;55.30
71237;DHT22;58984;51.960;5.582;2022-10-16T16:46:19;23.20;55.20
71237;DHT22;58984;51.960;5.582;2022-10-16T16:48:45;23.20;55.30
71237;DHT22;58984;51.960;5.582;2022-10-16T16:51:14;23.20;55.30
71237;DHT22;58984;51.960;5.582;2022-10-16T16:53:42;23.10;55.30
71237;DHT22;58984;51.960;5.582;2022-10-16T16:56:08;23.10;55.20
71237;DHT22;58984;51.960;5.582;2022-10-16T16:58:34;23.10;56.00
71237;DHT22;58984;51.960;5.582;2022-10-16T17:01:00;23.10;55.30
71237;DHT22;58984;51.960;5.582;2022-10-16T17:03:33;23.10;55.30
71237;DHT22;58984;51.960;5.582;2022-10-16T17:06:00;23.00;55.30
71237;DHT22;58984;51.960;5.582;2022-10-16T17:08:26;23.20;55.50
71237;DHT22;58984;51.960;5.582;2022-10-16T17:10:52;23.10;54.90
71237;DHT22;58984;51.960;5.582;2022-10-16T17:13:24;23.00;55.10
71237;DHT22;58984;51.960;5.582;2022-10-16T17:15:50;22.90;55.20
71237;DHT22;58984;51.960;5.582;2022-10-16T17:18:17;22.90;55.20
71237;DHT22;58984;51.960;5.582;2022-10-16T17:20:44;22.90;55.30
71237;DHT22;58984;51.960;5.582;2022-10-16T17:23:11;22.80;55.20
71237;DHT22;58984;51.960;5.582;2022-10-16T17:25:41;22.80;55.20
71237;DHT22;58984;51.960;5.582;2022-10-16T17:28:08;22.80;55.20
71237;DHT22;58984;51.960;5.582;2022-10-16T17:30:36;22.80;55.30
71237;DHT22;58984;51.960;5.582;2022-10-16T17:33:03;22.80;55.30
71237;DHT22;58984;51.960;5.582;2022-10-16T17:35:35;22.80;55.30